sensor_id;sensor_type;location;lat;lon;timestamp;P1;durP1;ratioP1;P2;durP2;ratioP2
7829;SDS011;3960;51.86894000;5.39848000;2022-09-03T00:00:44;3.55;;;1.98;;
7829;SDS011;3960;51.86894000;5.39848000;2022-09-03T00:05:48;6.28;;;1.95;;
7829;SDS011;3960;51.86894000;5.39848000;2022-09-03T00:08:20;47.53;;;3.60;;
7829;SDS011;3960;51.86894000;5.39848000;2022-09-03T00:10:52;3.80;;;2.10;;
7829;SDS011;3960;51.86894000;5.39848000;2022-09-03T00:13:21;3.65;;;1.80;;
7829;SDS011;3960;51.86894000;5.39848000;2022-09-03T00:15:47;5.88;;;1.90;;
7829;SDS011;3960;51.86894000;5.39848000;2022-09-03T00:18:15;4.53;;;2.10;;
7829;SDS011;3960;51.86894000;5.39848000;2022-09-03T00:20:43;4.30;;;2.00;;
7829;SDS011;3960;51.86894000;5.39848000;2022-09-03T00:23:13;3.95;;;2.00;;
7829;SDS011;3960;51.86894000;5.39848000;2022-09-03T00:25:42;5.20;;;2.00;;
7829;SDS011;3960;51.86894000;5.39848000;2022-09-03T00:28:13;5.75;;;2.20;;
7829;SDS011;3960;51.86894000;5.39848000;2022-09-03T00:30:40;6.35;;;1.73;;
7829;SDS011;3960;51.86894000;5.39848000;2022-09-03T00:33:08;6.38;;;1.98;;
7829;SDS011;3960;51.86894000;5.39848000;2022-09-03T00:35:38;2.53;;;1.92;;
7829;SDS011;3960;51.86894000;5.39848000;2022-09-03T00:38:04;5.22;;;2.10;;
7829;SDS011;3960;51.86894000;5.39848000;2022-09-03T00:45:42;20.98;;;4.72;;
7829;SDS011;3960;51.86894000;5.39848000;2022-09-03T00:50:44;3.78;;;2.10;;
7829;SDS011;3960;51.86894000;5.39848000;2022-09-03T00:53:12;3.30;;;2.22;;
7829;SDS011;3960;51.86894000;5.39848000;2022-09-03T00:55:51;7.13;;;2.10;;
7829;SDS011;3960;51.86894000;5.39848000;2022-09-03T01:01:14;2.10;;;1.80;;
7829;SDS011;3960;51.86894000;5.39848000;2022-09-03T01:03:42;4.65;;;1.83;;
7829;SDS011;3960;51.86894000;5.39848000;2022-09-03T01:06:17;3.10;;;2.05;;
7829;SDS011;3960;51.86894000;5.39848000;2022-09-03T01:16:38;7.72;;;2.13;;
7829;SDS011;3960;51.86894000;5.39848000;2022-09-03T01:21:57;5.13;;;1.90;;
7829;SDS011;3960;51.86894000;5.39848000;2022-09-03T01:29:56;4.70;;;2.10;;
7829;SDS011;3960;51.86894000;5.39848000;2022-09-03T01:32:26;2.78;;;2.00;;
7829;SDS011;3960;51.86894000;5.39848000;2022-09-03T01:35:00;6.63;;;2.28;;
7829;SDS011;3960;51.86894000;5.39848000;2022-09-03T01:37:36;3.67;;;2.22;;
7829;SDS011;3960;51.86894000;5.39848000;2022-09-03T01:52:54;4.40;;;2.15;;
7829;SDS011;3960;51.86894000;5.39848000;2022-09-03T02:00:18;3.20;;;2.33;;
7829;SDS011;3960;51.86894000;5.39848000;2022-09-03T02:02:44;2.42;;;2.08;;
7829;SDS011;3960;51.86894000;5.39848000;2022-09-03T02:05:22;6.30;;;2.40;;
7829;SDS011;3960;51.86894000;5.39848000;2022-09-03T02:08:09;3.33;;;2.05;;
7829;SDS011;3960;51.86894000;5.39848000;2022-09-03T02:10:38;6.35;;;2.17;;
7829;SDS011;3960;51.86894000;5.39848000;2022-09-03T02:13:15;6.32;;;2.30;;
7829;SDS011;3960;51.86894000;5.39848000;2022-09-03T02:15:42;4.85;;;2.45;;
7829;SDS011;3960;51.86894000;5.39848000;2022-09-03T02:18:11;6.68;;;2.67;;
7829;SDS011;3960;51.86894000;5.39848000;2022-09-03T02:20:37;3.92;;;2.15;;
7829;SDS011;3960;51.86894000;5.39848000;2022-09-03T02:23:03;4.75;;;2.30;;
7829;SDS011;3960;51.86894000;5.39848000;2022-09-03T02:25:33;2.90;;;2.10;;
7829;SDS011;3960;51.86894000;5.39848000;2022-09-03T02:27:59;6.90;;;2.37;;
7829;SDS011;3960;51.86894000;5.39848000;2022-09-03T02:30:25;3.45;;;2.20;;
7829;SDS011;3960;51.86894000;5.39848000;2022-09-03T02:32:51;3.28;;;2.00;;
7829;SDS011;3960;51.86894000;5.39848000;2022-09-03T02:35:16;4.10;;;2.37;;
7829;SDS011;3960;51.86894000;5.39848000;2022-09-03T02:37:42;6.05;;;2.83;;
7829;SDS011;3960;51.86894000;5.39848000;2022-09-03T02:40:07;4.97;;;2.20;;
7829;SDS011;3960;51.86894000;5.39848000;2022-09-03T02:42:34;3.25;;;2.17;;
7829;SDS011;3960;51.86894000;5.39848000;2022-09-03T02:45:01;8.05;;;2.40;;
7829;SDS011;3960;51.86894000;5.39848000;2022-09-03T02:47:28;2.95;;;2.25;;
7829;SDS011;3960;51.86894000;5.39848000;2022-09-03T02:49:55;5.63;;;2.20;;
7829;SDS011;3960;51.86894000;5.39848000;2022-09-03T02:52:20;6.20;;;2.30;;
7829;SDS011;3960;51.86894000;5.39848000;2022-09-03T02:54:45;6.00;;;2.00;;
7829;SDS011;3960;51.86894000;5.39848000;2022-09-03T02:57:12;5.67;;;2.30;;
7829;SDS011;3960;51.86894000;5.39848000;2022-09-03T02:59:38;4.63;;;2.30;;
7829;SDS011;3960;51.86894000;5.39848000;2022-09-03T03:02:03;8.90;;;2.20;;
7829;SDS011;3960;51.86894000;5.39848000;2022-09-03T03:04:29;7.33;;;2.40;;
7829;SDS011;3960;51.86894000;5.39848000;2022-09-03T03:06:54;5.40;;;2.25;;
7829;SDS011;3960;51.86894000;5.39848000;2022-09-03T03:09:20;4.53;;;2.20;;
7829;SDS011;3960;51.86894000;5.39848000;2022-09-03T03:11:45;3.10;;;2.30;;
7829;SDS011;3960;51.86894000;5.39848000;2022-09-03T03:14:10;3.53;;;1.90;;
7829;SDS011;3960;51.86894000;5.39848000;2022-09-03T03:16:35;3.43;;;2.30;;
7829;SDS011;3960;51.86894000;5.39848000;2022-09-03T03:19:01;3.83;;;2.10;;
7829;SDS011;3960;51.86894000;5.39848000;2022-09-03T03:21:26;2.80;;;2.10;;
7829;SDS011;3960;51.86894000;5.39848000;2022-09-03T03:23:51;2.80;;;2.05;;
7829;SDS011;3960;51.86894000;5.39848000;2022-09-03T03:26:17;3.70;;;2.10;;
7829;SDS011;3960;51.86894000;5.39848000;2022-09-03T03:28:43;5.38;;;2.28;;
7829;SDS011;3960;51.86894000;5.39848000;2022-09-03T03:31:09;4.47;;;2.35;;
7829;SDS011;3960;51.86894000;5.39848000;2022-09-03T03:33:35;5.95;;;2.45;;
7829;SDS011;3960;51.86894000;5.39848000;2022-09-03T03:36:04;3.67;;;2.30;;
7829;SDS011;3960;51.86894000;5.39848000;2022-09-03T03:38:30;3.95;;;2.17;;
7829;SDS011;3960;51.86894000;5.39848000;2022-09-03T03:40:56;5.20;;;2.20;;
7829;SDS011;3960;51.86894000;5.39848000;2022-09-03T03:43:21;2.33;;;1.90;;
7829;SDS011;3960;51.86894000;5.39848000;2022-09-03T03:45:56;10.13;;;2.87;;
7829;SDS011;3960;51.86894000;5.39848000;2022-09-03T03:48:21;3.80;;;2.20;;
7829;SDS011;3960;51.86894000;5.39848000;2022-09-03T03:50:46;2.67;;;2.13;;
7829;SDS011;3960;51.86894000;5.39848000;2022-09-03T03:53:11;7.67;;;2.30;;
7829;SDS011;3960;51.86894000;5.39848000;2022-09-03T03:55:36;3.80;;;2.20;;
7829;SDS011;3960;51.86894000;5.39848000;2022-09-03T03:58:03;4.88;;;2.10;;
7829;SDS011;3960;51.86894000;5.39848000;2022-09-03T04:00:28;2.90;;;2.10;;
7829;SDS011;3960;51.86894000;5.39848000;2022-09-03T04:02:53;2.57;;;2.00;;
7829;SDS011;3960;51.86894000;5.39848000;2022-09-03T04:05:18;3.17;;;1.97;;
7829;SDS011;3960;51.86894000;5.39848000;2022-09-03T04:07:43;5.27;;;2.20;;
7829;SDS011;3960;51.86894000;5.39848000;2022-09-03T04:10:09;4.43;;;2.10;;
7829;SDS011;3960;51.86894000;5.39848000;2022-09-03T04:12:34;7.10;;;2.25;;
7829;SDS011;3960;51.86894000;5.39848000;2022-09-03T04:14:59;3.27;;;2.10;;
7829;SDS011;3960;51.86894000;5.39848000;2022-09-03T04:17:24;3.40;;;2.27;;
7829;SDS011;3960;51.86894000;5.39848000;2022-09-03T04:19:50;4.30;;;2.28;;
7829;SDS011;3960;51.86894000;5.39848000;2022-09-03T04:22:15;3.30;;;2.20;;
7829;SDS011;3960;51.86894000;5.39848000;2022-09-03T04:24:40;6.67;;;2.33;;
7829;SDS011;3960;51.86894000;5.39848000;2022-09-03T04:27:05;2.50;;;2.30;;
7829;SDS011;3960;51.86894000;5.39848000;2022-09-03T04:29:30;3.43;;;2.30;;
7829;SDS011;3960;51.86894000;5.39848000;2022-09-03T04:31:56;4.33;;;2.23;;
7829;SDS011;3960;51.86894000;5.39848000;2022-09-03T04:34:39;4.25;;;2.20;;
7829;SDS011;3960;51.86894000;5.39848000;2022-09-03T04:37:04;8.57;;;2.20;;
7829;SDS011;3960;51.86894000;5.39848000;2022-09-03T04:39:30;3.43;;;2.07;;
7829;SDS011;3960;51.86894000;5.39848000;2022-09-03T04:41:55;5.60;;;2.07;;
7829;SDS011;3960;51.86894000;5.39848000;2022-09-03T04:44:20;3.40;;;2.35;;
7829;SDS011;3960;51.86894000;5.39848000;2022-09-03T04:46:46;5.07;;;2.30;;
7829;SDS011;3960;51.86894000;5.39848000;2022-09-03T04:49:14;3.20;;;2.40;;
7829;SDS011;3960;51.86894000;5.39848000;2022-09-03T04:51:39;3.38;;;2.20;;
7829;SDS011;3960;51.86894000;5.39848000;2022-09-03T04:54:04;3.63;;;2.10;;
7829;SDS011;3960;51.86894000;5.39848000;2022-09-03T04:56:30;4.50;;;2.30;;
7829;SDS011;3960;51.86894000;5.39848000;2022-09-03T04:58:57;3.90;;;2.20;;
7829;SDS011;3960;51.86894000;5.39848000;2022-09-03T05:01:23;4.93;;;2.25;;
7829;SDS011;3960;51.86894000;5.39848000;2022-09-03T05:03:49;5.20;;;2.03;;
7829;SDS011;3960;51.86894000;5.39848000;2022-09-03T05:06:17;6.13;;;2.45;;
7829;SDS011;3960;51.86894000;5.39848000;2022-09-03T05:08:46;6.25;;;3.00;;
7829;SDS011;3960;51.86894000;5.39848000;2022-09-03T05:11:12;3.47;;;2.30;;
7829;SDS011;3960;51.86894000;5.39848000;2022-09-03T05:13:37;3.83;;;2.50;;
7829;SDS011;3960;51.86894000;5.39848000;2022-09-03T05:16:03;2.50;;;2.00;;
7829;SDS011;3960;51.86894000;5.39848000;2022-09-03T05:18:29;5.13;;;2.17;;
7829;SDS011;3960;51.86894000;5.39848000;2022-09-03T05:20:58;4.30;;;2.33;;
7829;SDS011;3960;51.86894000;5.39848000;2022-09-03T05:23:24;9.88;;;2.20;;
7829;SDS011;3960;51.86894000;5.39848000;2022-09-03T05:25:56;6.43;;;2.15;;
7829;SDS011;3960;51.86894000;5.39848000;2022-09-03T05:28:22;3.85;;;2.10;;
7829;SDS011;3960;51.86894000;5.39848000;2022-09-03T05:30:56;3.07;;;2.13;;
7829;SDS011;3960;51.86894000;5.39848000;2022-09-03T05:33:21;2.35;;;1.92;;
7829;SDS011;3960;51.86894000;5.39848000;2022-09-03T05:35:47;6.40;;;2.53;;
7829;SDS011;3960;51.86894000;5.39848000;2022-09-03T05:38:12;4.10;;;2.40;;
7829;SDS011;3960;51.86894000;5.39848000;2022-09-03T05:40:39;8.32;;;2.63;;
7829;SDS011;3960;51.86894000;5.39848000;2022-09-03T05:43:05;5.00;;;2.63;;
7829;SDS011;3960;51.86894000;5.39848000;2022-09-03T05:45:30;5.73;;;1.93;;
7829;SDS011;3960;51.86894000;5.39848000;2022-09-03T05:47:58;3.88;;;1.95;;
7829;SDS011;3960;51.86894000;5.39848000;2022-09-03T05:50:23;4.72;;;2.20;;
7829;SDS011;3960;51.86894000;5.39848000;2022-09-03T05:52:48;5.23;;;2.00;;
7829;SDS011;3960;51.86894000;5.39848000;2022-09-03T05:55:13;3.50;;;1.97;;
7829;SDS011;3960;51.86894000;5.39848000;2022-09-03T05:57:39;8.33;;;2.10;;
7829;SDS011;3960;51.86894000;5.39848000;2022-09-03T06:00:05;4.93;;;1.85;;
7829;SDS011;3960;51.86894000;5.39848000;2022-09-03T06:02:30;6.28;;;2.10;;
7829;SDS011;3960;51.86894000;5.39848000;2022-09-03T06:04:56;7.22;;;2.10;;
7829;SDS011;3960;51.86894000;5.39848000;2022-09-03T06:07:22;5.25;;;2.10;;
7829;SDS011;3960;51.86894000;5.39848000;2022-09-03T06:09:47;2.70;;;2.00;;
7829;SDS011;3960;51.86894000;5.39848000;2022-09-03T06:12:12;2.57;;;2.10;;
7829;SDS011;3960;51.86894000;5.39848000;2022-09-03T06:14:37;4.17;;;1.90;;
7829;SDS011;3960;51.86894000;5.39848000;2022-09-03T06:17:02;4.07;;;2.23;;
7829;SDS011;3960;51.86894000;5.39848000;2022-09-03T06:19:27;2.77;;;2.10;;
7829;SDS011;3960;51.86894000;5.39848000;2022-09-03T06:21:53;2.67;;;1.90;;
7829;SDS011;3960;51.86894000;5.39848000;2022-09-03T06:24:19;6.07;;;2.30;;
7829;SDS011;3960;51.86894000;5.39848000;2022-09-03T06:26:48;5.28;;;2.10;;
7829;SDS011;3960;51.86894000;5.39848000;2022-09-03T06:29:14;4.18;;;2.00;;
7829;SDS011;3960;51.86894000;5.39848000;2022-09-03T06:31:39;13.93;;;2.75;;
7829;SDS011;3960;51.86894000;5.39848000;2022-09-03T06:34:04;6.68;;;2.35;;
7829;SDS011;3960;51.86894000;5.39848000;2022-09-03T06:36:30;7.40;;;2.20;;
7829;SDS011;3960;51.86894000;5.39848000;2022-09-03T06:38:55;3.33;;;2.15;;
7829;SDS011;3960;51.86894000;5.39848000;2022-09-03T06:41:22;3.83;;;2.45;;
7829;SDS011;3960;51.86894000;5.39848000;2022-09-03T06:43:51;3.85;;;2.65;;
7829;SDS011;3960;51.86894000;5.39848000;2022-09-03T06:46:18;3.42;;;2.22;;
7829;SDS011;3960;51.86894000;5.39848000;2022-09-03T06:48:44;5.05;;;2.28;;
7829;SDS011;3960;51.86894000;5.39848000;2022-09-03T06:51:11;8.15;;;2.30;;
7829;SDS011;3960;51.86894000;5.39848000;2022-09-03T06:53:37;3.47;;;2.28;;
7829;SDS011;3960;51.86894000;5.39848000;2022-09-03T06:56:03;4.20;;;2.22;;
7829;SDS011;3960;51.86894000;5.39848000;2022-09-03T06:58:30;5.65;;;2.60;;
7829;SDS011;3960;51.86894000;5.39848000;2022-09-03T07:01:02;4.65;;;2.28;;
7829;SDS011;3960;51.86894000;5.39848000;2022-09-03T07:03:28;8.90;;;2.42;;
7829;SDS011;3960;51.86894000;5.39848000;2022-09-03T07:05:53;10.48;;;2.30;;
7829;SDS011;3960;51.86894000;5.39848000;2022-09-03T07:08:18;7.68;;;2.45;;
7829;SDS011;3960;51.86894000;5.39848000;2022-09-03T07:10:46;4.23;;;2.23;;
7829;SDS011;3960;51.86894000;5.39848000;2022-09-03T07:13:12;5.15;;;1.90;;
7829;SDS011;3960;51.86894000;5.39848000;2022-09-03T07:15:38;5.22;;;2.15;;
7829;SDS011;3960;51.86894000;5.39848000;2022-09-03T07:18:05;5.00;;;1.98;;
7829;SDS011;3960;51.86894000;5.39848000;2022-09-03T07:20:30;3.73;;;2.37;;
7829;SDS011;3960;51.86894000;5.39848000;2022-09-03T07:22:55;7.80;;;2.10;;
7829;SDS011;3960;51.86894000;5.39848000;2022-09-03T07:25:21;7.65;;;2.28;;
7829;SDS011;3960;51.86894000;5.39848000;2022-09-03T07:27:47;3.40;;;2.45;;
7829;SDS011;3960;51.86894000;5.39848000;2022-09-03T07:30:15;9.23;;;2.47;;
7829;SDS011;3960;51.86894000;5.39848000;2022-09-03T07:32:40;6.68;;;2.40;;
7829;SDS011;3960;51.86894000;5.39848000;2022-09-03T07:35:05;2.47;;;2.20;;
7829;SDS011;3960;51.86894000;5.39848000;2022-09-03T07:37:31;6.65;;;2.00;;
7829;SDS011;3960;51.86894000;5.39848000;2022-09-03T07:39:56;3.90;;;2.20;;
7829;SDS011;3960;51.86894000;5.39848000;2022-09-03T07:42:21;4.10;;;1.87;;
7829;SDS011;3960;51.86894000;5.39848000;2022-09-03T07:44:47;4.45;;;1.98;;
7829;SDS011;3960;51.86894000;5.39848000;2022-09-03T07:47:12;3.17;;;2.10;;
7829;SDS011;3960;51.86894000;5.39848000;2022-09-03T07:49:39;2.92;;;1.77;;
7829;SDS011;3960;51.86894000;5.39848000;2022-09-03T07:52:04;4.17;;;1.80;;
7829;SDS011;3960;51.86894000;5.39848000;2022-09-03T07:54:29;4.47;;;2.00;;
7829;SDS011;3960;51.86894000;5.39848000;2022-09-03T07:56:55;4.85;;;1.90;;
7829;SDS011;3960;51.86894000;5.39848000;2022-09-03T07:59:20;4.70;;;1.75;;
7829;SDS011;3960;51.86894000;5.39848000;2022-09-03T08:01:47;12.43;;;6.55;;
7829;SDS011;3960;51.86894000;5.39848000;2022-09-03T08:04:12;5.28;;;2.05;;
7829;SDS011;3960;51.86894000;5.39848000;2022-09-03T08:06:37;4.87;;;1.93;;
7829;SDS011;3960;51.86894000;5.39848000;2022-09-03T08:09:05;3.38;;;1.40;;
7829;SDS011;3960;51.86894000;5.39848000;2022-09-03T08:11:32;2.95;;;1.70;;
7829;SDS011;3960;51.86894000;5.39848000;2022-09-03T08:14:03;4.03;;;1.70;;
7829;SDS011;3960;51.86894000;5.39848000;2022-09-03T08:18:55;2.75;;;1.65;;
7829;SDS011;3960;51.86894000;5.39848000;2022-09-03T08:21:20;6.45;;;1.75;;
7829;SDS011;3960;51.86894000;5.39848000;2022-09-03T08:23:46;3.60;;;1.55;;
7829;SDS011;3960;51.86894000;5.39848000;2022-09-03T08:26:12;2.10;;;1.42;;
7829;SDS011;3960;51.86894000;5.39848000;2022-09-03T08:28:38;5.63;;;1.80;;
7829;SDS011;3960;51.86894000;5.39848000;2022-09-03T08:31:04;4.50;;;1.80;;
7829;SDS011;3960;51.86894000;5.39848000;2022-09-03T08:33:30;6.68;;;1.63;;
7829;SDS011;3960;51.86894000;5.39848000;2022-09-03T08:36:02;4.78;;;1.88;;
7829;SDS011;3960;51.86894000;5.39848000;2022-09-03T08:38:29;7.50;;;1.80;;
7829;SDS011;3960;51.86894000;5.39848000;2022-09-03T08:41:01;4.80;;;1.70;;
7829;SDS011;3960;51.86894000;5.39848000;2022-09-03T08:43:26;3.80;;;1.50;;
7829;SDS011;3960;51.86894000;5.39848000;2022-09-03T08:45:52;3.13;;;1.50;;
7829;SDS011;3960;51.86894000;5.39848000;2022-09-03T08:48:18;9.10;;;1.53;;
7829;SDS011;3960;51.86894000;5.39848000;2022-09-03T08:50:47;6.10;;;1.80;;
7829;SDS011;3960;51.86894000;5.39848000;2022-09-03T08:55:51;6.13;;;2.80;;
7829;SDS011;3960;51.86894000;5.39848000;2022-09-03T08:58:18;6.00;;;1.90;;
7829;SDS011;3960;51.86894000;5.39848000;2022-09-03T09:03:23;3.90;;;1.90;;
7829;SDS011;3960;51.86894000;5.39848000;2022-09-03T09:05:55;5.03;;;2.10;;
7829;SDS011;3960;51.86894000;5.39848000;2022-09-03T09:10:56;4.18;;;1.45;;
7829;SDS011;3960;51.86894000;5.39848000;2022-09-03T09:13:32;3.40;;;1.80;;
7829;SDS011;3960;51.86894000;5.39848000;2022-09-03T09:16:05;4.75;;;1.52;;
7829;SDS011;3960;51.86894000;5.39848000;2022-09-03T09:21:22;4.22;;;2.10;;
7829;SDS011;3960;51.86894000;5.39848000;2022-09-03T09:23:46;4.20;;;2.03;;
7829;SDS011;3960;51.86894000;5.39848000;2022-09-03T09:26:15;4.80;;;1.98;;
7829;SDS011;3960;51.86894000;5.39848000;2022-09-03T09:28:41;3.03;;;1.70;;
7829;SDS011;3960;51.86894000;5.39848000;2022-09-03T09:31:08;3.63;;;2.13;;
7829;SDS011;3960;51.86894000;5.39848000;2022-09-03T09:33:33;2.28;;;1.85;;
7829;SDS011;3960;51.86894000;5.39848000;2022-09-03T09:36:03;9.93;;;4.00;;
7829;SDS011;3960;51.86894000;5.39848000;2022-09-03T09:38:31;6.40;;;2.50;;
7829;SDS011;3960;51.86894000;5.39848000;2022-09-03T09:41:06;9.88;;;2.10;;
7829;SDS011;3960;51.86894000;5.39848000;2022-09-03T09:43:31;3.10;;;2.08;;
7829;SDS011;3960;51.86894000;5.39848000;2022-09-03T09:46:04;3.58;;;1.58;;
7829;SDS011;3960;51.86894000;5.39848000;2022-09-03T09:48:30;5.55;;;1.83;;
7829;SDS011;3960;51.86894000;5.39848000;2022-09-03T09:53:59;4.43;;;1.75;;
7829;SDS011;3960;51.86894000;5.39848000;2022-09-03T09:56:25;4.80;;;1.90;;
7829;SDS011;3960;51.86894000;5.39848000;2022-09-03T10:01:28;3.30;;;1.80;;
7829;SDS011;3960;51.86894000;5.39848000;2022-09-03T10:03:56;6.03;;;1.70;;
7829;SDS011;3960;51.86894000;5.39848000;2022-09-03T10:06:22;7.53;;;1.65;;
7829;SDS011;3960;51.86894000;5.39848000;2022-09-03T10:09:14;18.00;;;2.10;;
7829;SDS011;3960;51.86894000;5.39848000;2022-09-03T10:11:41;3.58;;;1.60;;
7829;SDS011;3960;51.86894000;5.39848000;2022-09-03T10:14:13;12.98;;;1.80;;
7829;SDS011;3960;51.86894000;5.39848000;2022-09-03T10:16:41;7.57;;;1.40;;
7829;SDS011;3960;51.86894000;5.39848000;2022-09-03T10:19:14;4.82;;;2.05;;
7829;SDS011;3960;51.86894000;5.39848000;2022-09-03T10:26:39;7.05;;;2.90;;
7829;SDS011;3960;51.86894000;5.39848000;2022-09-03T10:29:05;9.60;;;2.60;;
7829;SDS011;3960;51.86894000;5.39848000;2022-09-03T10:31:42;2.35;;;1.67;;
7829;SDS011;3960;51.86894000;5.39848000;2022-09-03T10:34:28;4.95;;;1.70;;
7829;SDS011;3960;51.86894000;5.39848000;2022-09-03T10:39:38;4.13;;;1.65;;
7829;SDS011;3960;51.86894000;5.39848000;2022-09-03T10:47:05;3.67;;;1.90;;
7829;SDS011;3960;51.86894000;5.39848000;2022-09-03T10:52:06;5.25;;;1.80;;
7829;SDS011;3960;51.86894000;5.39848000;2022-09-03T10:57:25;2.92;;;1.75;;
7829;SDS011;3960;51.86894000;5.39848000;2022-09-03T11:00:03;3.25;;;1.63;;
7829;SDS011;3960;51.86894000;5.39848000;2022-09-03T11:05:05;4.28;;;1.92;;
7829;SDS011;3960;51.86894000;5.39848000;2022-09-03T11:07:35;4.03;;;1.60;;
7829;SDS011;3960;51.86894000;5.39848000;2022-09-03T11:10:09;4.78;;;1.85;;
7829;SDS011;3960;51.86894000;5.39848000;2022-09-03T11:12:37;7.15;;;1.75;;
7829;SDS011;3960;51.86894000;5.39848000;2022-09-03T11:15:05;2.80;;;1.70;;
7829;SDS011;3960;51.86894000;5.39848000;2022-09-03T11:17:37;5.13;;;2.15;;
7829;SDS011;3960;51.86894000;5.39848000;2022-09-03T11:20:23;4.88;;;1.90;;
7829;SDS011;3960;51.86894000;5.39848000;2022-09-03T11:22:49;4.80;;;2.00;;
7829;SDS011;3960;51.86894000;5.39848000;2022-09-03T11:25:16;7.90;;;2.00;;
7829;SDS011;3960;51.86894000;5.39848000;2022-09-03T11:27:54;7.57;;;1.90;;
7829;SDS011;3960;51.86894000;5.39848000;2022-09-03T11:30:24;4.57;;;1.80;;
7829;SDS011;3960;51.86894000;5.39848000;2022-09-03T11:32:53;5.30;;;1.80;;
7829;SDS011;3960;51.86894000;5.39848000;2022-09-03T11:35:27;10.00;;;2.00;;
7829;SDS011;3960;51.86894000;5.39848000;2022-09-03T11:38:03;5.35;;;2.00;;
7829;SDS011;3960;51.86894000;5.39848000;2022-09-03T11:40:31;3.80;;;1.80;;
7829;SDS011;3960;51.86894000;5.39848000;2022-09-03T11:43:04;5.03;;;1.83;;
7829;SDS011;3960;51.86894000;5.39848000;2022-09-03T11:47:55;6.72;;;1.90;;
7829;SDS011;3960;51.86894000;5.39848000;2022-09-03T11:50:22;7.18;;;2.00;;
7829;SDS011;3960;51.86894000;5.39848000;2022-09-03T11:52:48;3.20;;;1.92;;
7829;SDS011;3960;51.86894000;5.39848000;2022-09-03T11:55:28;6.53;;;2.40;;
7829;SDS011;3960;51.86894000;5.39848000;2022-09-03T11:57:55;10.48;;;2.30;;
7829;SDS011;3960;51.86894000;5.39848000;2022-09-03T12:00:20;8.35;;;1.95;;
7829;SDS011;3960;51.86894000;5.39848000;2022-09-03T12:03:00;6.05;;;1.98;;
7829;SDS011;3960;51.86894000;5.39848000;2022-09-03T12:05:42;4.20;;;2.15;;
7829;SDS011;3960;51.86894000;5.39848000;2022-09-03T12:15:48;4.05;;;1.88;;
7829;SDS011;3960;51.86894000;5.39848000;2022-09-03T12:20:44;2.70;;;1.95;;
7829;SDS011;3960;51.86894000;5.39848000;2022-09-03T12:23:13;3.03;;;1.88;;
7829;SDS011;3960;51.86894000;5.39848000;2022-09-03T12:25:42;4.90;;;2.30;;
7829;SDS011;3960;51.86894000;5.39848000;2022-09-03T12:28:11;8.13;;;2.20;;
7829;SDS011;3960;51.86894000;5.39848000;2022-09-03T12:30:37;6.05;;;2.20;;
7829;SDS011;3960;51.86894000;5.39848000;2022-09-03T12:33:04;4.00;;;2.10;;
7829;SDS011;3960;51.86894000;5.39848000;2022-09-03T12:35:29;3.45;;;2.03;;
7829;SDS011;3960;51.86894000;5.39848000;2022-09-03T12:37:54;7.03;;;2.00;;
7829;SDS011;3960;51.86894000;5.39848000;2022-09-03T12:40:21;5.17;;;2.30;;
7829;SDS011;3960;51.86894000;5.39848000;2022-09-03T12:42:47;5.22;;;2.08;;
7829;SDS011;3960;51.86894000;5.39848000;2022-09-03T12:45:13;4.57;;;1.77;;
7829;SDS011;3960;51.86894000;5.39848000;2022-09-03T12:47:40;3.85;;;2.13;;
7829;SDS011;3960;51.86894000;5.39848000;2022-09-03T12:50:10;8.75;;;2.20;;
7829;SDS011;3960;51.86894000;5.39848000;2022-09-03T12:55:11;8.10;;;1.97;;
7829;SDS011;3960;51.86894000;5.39848000;2022-09-03T13:00:06;5.15;;;2.00;;
7829;SDS011;3960;51.86894000;5.39848000;2022-09-03T13:05:13;3.20;;;2.13;;
7829;SDS011;3960;51.86894000;5.39848000;2022-09-03T13:07:39;3.60;;;2.10;;
7829;SDS011;3960;51.86894000;5.39848000;2022-09-03T13:12:49;4.50;;;2.00;;
7829;SDS011;3960;51.86894000;5.39848000;2022-09-03T13:15:21;5.57;;;1.80;;
7829;SDS011;3960;51.86894000;5.39848000;2022-09-03T13:20:20;5.38;;;1.80;;
7829;SDS011;3960;51.86894000;5.39848000;2022-09-03T13:25:25;5.40;;;1.93;;
7829;SDS011;3960;51.86894000;5.39848000;2022-09-03T13:27:58;11.25;;;2.20;;
7829;SDS011;3960;51.86894000;5.39848000;2022-09-03T13:30:38;3.85;;;2.60;;
7829;SDS011;3960;51.86894000;5.39848000;2022-09-03T13:33:18;7.53;;;2.20;;
7829;SDS011;3960;51.86894000;5.39848000;2022-09-03T13:40:54;9.70;;;2.10;;
7829;SDS011;3960;51.86894000;5.39848000;2022-09-03T13:43:23;4.10;;;1.88;;
7829;SDS011;3960;51.86894000;5.39848000;2022-09-03T13:46:01;4.82;;;1.77;;
7829;SDS011;3960;51.86894000;5.39848000;2022-09-03T13:51:12;14.90;;;5.88;;
7829;SDS011;3960;51.86894000;5.39848000;2022-09-03T13:53:41;35.75;;;12.93;;
7829;SDS011;3960;51.86894000;5.39848000;2022-09-03T13:56:20;15.32;;;7.55;;
7829;SDS011;3960;51.86894000;5.39848000;2022-09-03T13:58:52;23.67;;;12.82;;
7829;SDS011;3960;51.86894000;5.39848000;2022-09-03T14:01:25;16.73;;;7.50;;
7829;SDS011;3960;51.86894000;5.39848000;2022-09-03T14:06:59;4.97;;;2.20;;
7829;SDS011;3960;51.86894000;5.39848000;2022-09-03T14:11:52;7.07;;;2.17;;
7829;SDS011;3960;51.86894000;5.39848000;2022-09-03T14:14:22;5.03;;;2.10;;
7829;SDS011;3960;51.86894000;5.39848000;2022-09-03T14:16:55;4.55;;;2.08;;
7829;SDS011;3960;51.86894000;5.39848000;2022-09-03T14:19:27;5.22;;;1.80;;
7829;SDS011;3960;51.86894000;5.39848000;2022-09-03T14:21:54;2.35;;;1.80;;
7829;SDS011;3960;51.86894000;5.39848000;2022-09-03T14:24:23;5.82;;;1.95;;
7829;SDS011;3960;51.86894000;5.39848000;2022-09-03T14:26:55;3.85;;;1.80;;
7829;SDS011;3960;51.86894000;5.39848000;2022-09-03T14:29:27;6.53;;;1.70;;
7829;SDS011;3960;51.86894000;5.39848000;2022-09-03T14:34:59;2.50;;;1.73;;
7829;SDS011;3960;51.86894000;5.39848000;2022-09-03T14:45:21;3.72;;;1.90;;
7829;SDS011;3960;51.86894000;5.39848000;2022-09-03T14:47:59;2.17;;;1.50;;
7829;SDS011;3960;51.86894000;5.39848000;2022-09-03T14:58:26;3.92;;;1.70;;
7829;SDS011;3960;51.86894000;5.39848000;2022-09-03T15:11:16;4.50;;;2.00;;
7829;SDS011;3960;51.86894000;5.39848000;2022-09-03T15:13:53;3.67;;;1.90;;
7829;SDS011;3960;51.86894000;5.39848000;2022-09-03T15:16:30;6.55;;;1.90;;
7829;SDS011;3960;51.86894000;5.39848000;2022-09-03T15:19:10;5.00;;;1.90;;
7829;SDS011;3960;51.86894000;5.39848000;2022-09-03T15:21:47;2.90;;;1.98;;
7829;SDS011;3960;51.86894000;5.39848000;2022-09-03T15:34:30;3.33;;;1.90;;
7829;SDS011;3960;51.86894000;5.39848000;2022-09-03T15:36:59;4.47;;;2.22;;
7829;SDS011;3960;51.86894000;5.39848000;2022-09-03T15:39:32;4.88;;;2.05;;
7829;SDS011;3960;51.86894000;5.39848000;2022-09-03T15:41:59;5.68;;;1.80;;
7829;SDS011;3960;51.86894000;5.39848000;2022-09-03T15:44:26;5.28;;;2.15;;
7829;SDS011;3960;51.86894000;5.39848000;2022-09-03T15:46:58;2.80;;;1.90;;
7829;SDS011;3960;51.86894000;5.39848000;2022-09-03T15:54:40;2.95;;;2.20;;
7829;SDS011;3960;51.86894000;5.39848000;2022-09-03T15:57:18;3.65;;;2.03;;
7829;SDS011;3960;51.86894000;5.39848000;2022-09-03T16:00:02;5.93;;;1.80;;
7829;SDS011;3960;51.86894000;5.39848000;2022-09-03T16:02:37;2.97;;;2.00;;
7829;SDS011;3960;51.86894000;5.39848000;2022-09-03T16:10:08;3.88;;;1.88;;
7829;SDS011;3960;51.86894000;5.39848000;2022-09-03T16:20:17;4.53;;;1.90;;